Xunlong5 — BYGW — position and weather

sailwx.info

Track history (hours):
 
Tides and Currents Weather Stations Pressure Air Temp Water Temp Dewpoint Dewpoint Depression Visibility Wind Speed Wind Dir Waves Ship Positions

Xunlong5

Last reported at 2014-Sep-23 07:33 UTC. Time now 2014-Sep-23 08:17 UTC.
Position N 22°14' E 113°43'.

Length 34 m; draft 1.4 m.

Type: High speed craft. MMSI: 413471870.

Date/timePositionNaut miles runAvg speedWind from/ knotsBaromVisibWave heightAir tempDewpointWater temp
2014-Sep-23 07:33N 22°14' E 113°43'8 7.6
2014-Sep-23 06:34N 22°11' E 113°36'2524.9
2014-Sep-23 05:33N 22°29' E 113°55'2019.8
2014-Sep-23 04:34N 22°13' E 113°41'5 4.5
2014-Sep-23 03:33N 22°11' E 113°37'2424.1
2014-Sep-23 02:33N 22°29' E 113°55'9 8.2
2014-Sep-23 01:27N 22°21' E 113°60'7 8.1
2014-Sep-23 00:34N 22°19' E 114°07'1515.3
2014-Sep-22 23:33N 22°29' E 113°55'0 0.0
2014-Sep-22 22:33N 22°29' E 113°55'0 0.0
2014-Sep-22 21:33N 22°29' E 113°55'0 0.0
2014-Sep-22 20:33N 22°29' E 113°55'0 0.0
2014-Sep-22 19:33N 22°29' E 113°55'0 0.0
2014-Sep-22 18:33N 22°29' E 113°55'0 0.0
2014-Sep-22 17:33N 22°29' E 113°55'0 0.0
2014-Sep-22 16:33N 22°29' E 113°55'0 0.0
2014-Sep-22 15:33N 22°29' E 113°55'0 0.0
2014-Sep-22 14:33N 22°29' E 113°55'6 4.7
2014-Sep-22 13:12N 22°22' E 113°55'6 9.8
2014-Sep-22 12:33N 22°29' E 113°55'1615.8
2014-Sep-22 11:34N 22°16' E 113°45'1111.3
2014-Sep-22 10:33N 22°11' E 113°34'2625.8
2014-Sep-22 09:33N 22°29' E 113°55'1716.8
2014-Sep-22 08:33N 22°15' E 113°44'8 8.3
2014-Sep-22 07:33N 22°11' E 113°36'2524.8
2014-Sep-22 06:33N 22°29' E 113°55'9 7.9
2014-Sep-22 05:25N 22°21' E 113°60'6 7.2
2014-Sep-22 04:33N 22°19' E 114°06'1414.2
2014-Sep-22 03:33N 22°28' E 113°55'2423.8
2014-Sep-22 02:33N 22°11' E 113°37'6 5.7
2014-Sep-22 01:33N 22°14' E 113°43'1818.4
2014-Sep-22 00:34N 22°29' E 113°55'0 0.1
2014-Sep-21 23:33N 22°29' E 113°55'0 0.0
2014-Sep-21 22:33N 22°29' E 113°55'0 0.0
2014-Sep-21 21:33N 22°29' E 113°55'0 0.0
2014-Sep-21 20:33N 22°29' E 113°55'0 0.0
2014-Sep-21 19:33N 22°29' E 113°55'0 0.0
2014-Sep-21 18:33N 22°29' E 113°55'0 0.0
2014-Sep-21 17:33N 22°29' E 113°55'0 0.0
2014-Sep-21 16:33N 22°29' E 113°55'0 0.0
2014-Sep-21 15:33N 22°29' E 113°55'0 0.0
2014-Sep-21 14:33N 22°29' E 113°55'10 8.9
2014-Sep-21 13:27N 22°19' E 113°57'1011.0
2014-Sep-21 12:33N 22°29' E 113°55'1716.8
2014-Sep-21 11:34N 22°15' E 113°44'7 7.4
2014-Sep-21 10:33N 22°11' E 113°37'2423.9
2014-Sep-21 09:33N 22°29' E 113°55'1919.5
2014-Sep-21 08:34N 22°13' E 113°42'7 6.9
2014-Sep-21 07:33N 22°11' E 113°35'2625.7
2014-Sep-21 06:34N 22°29' E 113°55'0 0.1
2014-Sep-21 05:33N 22°29' E 113°55'0 0.1
2014-Sep-21 04:33N 22°29' E 113°55'1817.1
2014-Sep-21 03:31N 22°17' E 114°09'1414.0
2014-Sep-21 02:33N 22°22' E 113°55'7 7.0
2014-Sep-21 01:34N 22°29' E 113°55'0 0.0
2014-Sep-21 00:34N 22°29' E 113°55'0 0.1
2014-Sep-20 23:34N 22°29' E 113°55'0 0.0
2014-Sep-20 22:33N 22°29' E 113°55'0 0.0
2014-Sep-20 21:34N 22°29' E 113°55'0 0.0
2014-Sep-20 20:33N 22°29' E 113°55'0 0.0
2014-Sep-20 19:34N 22°29' E 113°55'0 0.0
2014-Sep-20 18:34N 22°29' E 113°55'0 0.0
2014-Sep-20 17:34N 22°29' E 113°55'0 0.0
2014-Sep-20 16:34N 22°29' E 113°55'0 0.0
2014-Sep-20 15:34N 22°29' E 113°55'0 0.0
2014-Sep-20 14:33N 22°29' E 113°55'7 5.5
2014-Sep-20 13:14N 22°22' E 113°55'710.7
2014-Sep-20 12:33N 22°29' E 113°55'1918.8
2014-Sep-20 11:33N 22°14' E 113°42'3 3.1
2014-Sep-20 10:34N 22°12' E 113°40'2221.8
2014-Sep-20 09:33N 22°29' E 113°55'1919.3
2014-Sep-20 08:33N 22°14' E 113°42'6 6.2
2014-Sep-20 07:34N 22°11' E 113°36'2525.1
2014-Sep-20 06:33N 22°29' E 113°55'0 0.1
2014-Sep-20 05:33N 22°29' E 113°55'0 0.4
2014-Sep-20 04:33N 22°28' E 113°55'1716.8
2014-Sep-20 03:34N 22°18' E 114°09'1414.0
2014-Sep-20 02:33N 22°22' E 113°55'6 6.3
2014-Sep-20 01:33N 22°29' E 113°55'0 0.0
2014-Sep-20 00:33N 22°29' E 113°55'0 0.1
2014-Sep-19 23:33N 22°29' E 113°55'0 0.0
2014-Sep-19 22:33N 22°29' E 113°55'0 0.0
2014-Sep-19 21:33N 22°29' E 113°55'0 0.0
2014-Sep-19 20:33N 22°29' E 113°55'0 0.0
2014-Sep-19 19:33N 22°29' E 113°55'0 0.0
2014-Sep-19 18:33N 22°29' E 113°55'0 0.0
2014-Sep-19 17:33N 22°29' E 113°55'0 0.0
2014-Sep-19 16:33N 22°29' E 113°55'0 0.0
2014-Sep-19 15:33N 22°29' E 113°55'0 0.0
2014-Sep-19 14:33N 22°29' E 113°55'6 5.0
2014-Sep-19 13:16N 22°22' E 113°55'6 9.1
2014-Sep-19 12:33N 22°29' E 113°55'1918.8
2014-Sep-19 11:34N 22°14' E 113°42'2 2.2
2014-Sep-19 10:33N 22°13' E 113°40'2120.8
2014-Sep-19 09:33N 22°29' E 113°55'2319.5
2014-Sep-19 08:22N 22°11' E 113°38'3 4.2
2014-Sep-19 07:34N 22°11' E 113°34'2625.8
2014-Sep-19 06:34N 22°29' E 113°55'0 0.1
2014-Sep-19 05:33N 22°29' E 113°55'0 0.3
2014-Sep-19 04:33N 22°29' E 113°55'1716.1
2014-Sep-19 03:29N 22°17' E 114°09'1617.7
2014-Sep-19 02:33N 22°26' E 113°54'3 2.9
2014-Sep-19 01:33N 22°29' E 113°55'0 0.0
2014-Sep-19 00:33N 22°29' E 113°55'0 0.0
2014-Sep-18 23:33N 22°29' E 113°55'0 0.0
2014-Sep-18 22:33N 22°29' E 113°55'0 0.0
2014-Sep-18 21:33N 22°29' E 113°55'0 0.0
2014-Sep-18 20:33N 22°29' E 113°55'0 0.0
2014-Sep-18 19:33N 22°29' E 113°55'0 0.0
2014-Sep-18 18:33N 22°29' E 113°55'0 0.0
2014-Sep-18 17:33N 22°29' E 113°55'0 0.0
2014-Sep-18 16:33N 22°29' E 113°55'0 0.0
2014-Sep-18 15:33N 22°29' E 113°55'0 0.0
2014-Sep-18 14:33N 22°29' E 113°55'1111.2
2014-Sep-18 13:33N 22°19' E 113°48'1514.7
2014-Sep-18 12:33N 22°11' E 113°35'2625.6
2014-Sep-18 11:33N 22°29' E 113°55'1616.1
2014-Sep-18 10:33N 22°15' E 113°45'1010.3
2014-Sep-18 09:33N 22°11' E 113°35'2625.7
2014-Sep-18 08:33N 22°29' E 113°55'1818.1
2014-Sep-18 07:34N 22°14' E 113°43'7 7.2
2014-Sep-18 06:33N 22°11' E 113°36'2524.9
2014-Sep-18 05:33N 22°29' E 113°55'1616.3
2014-Sep-18 04:33N 22°15' E 113°45'9 8.7
2014-Sep-18 03:33N 22°11' E 113°37'2424.6
2014-Sep-18 02:33N 22°29' E 113°55'1410.7
2014-Sep-18 01:15N 22°19' E 114°06'2 2.8
2014-Sep-18 00:34N 22°19' E 114°08'1615.7
2014-Sep-17 23:33N 22°29' E 113°55'0 0.0
2014-Sep-17 22:33N 22°29' E 113°55'0 0.0
2014-Sep-17 21:33N 22°29' E 113°55'0 0.0
2014-Sep-17 20:33N 22°29' E 113°55'0 0.0
2014-Sep-17 19:33N 22°29' E 113°55'0 0.0
2014-Sep-17 18:33N 22°29' E 113°55'0 0.0
2014-Sep-17 17:33N 22°29' E 113°55'0 0.0
2014-Sep-17 16:33N 22°29' E 113°55'0 0.0
2014-Sep-17 15:33N 22°29' E 113°55'0 0.0
2014-Sep-17 14:34N 22°29' E 113°55'7 5.8
2014-Sep-17 13:21N 22°22' E 113°55'7 9.0
2014-Sep-17 12:33N 22°29' E 113°55'2121.2
2014-Sep-17 11:33N 22°12' E 113°40'4 3.8
2014-Sep-17 10:34N 22°11' E 113°36'2524.8
2014-Sep-17 09:34N 22°29' E 113°55'1817.8
2014-Sep-17 08:34N 22°14' E 113°43'7 7.4
2014-Sep-17 07:33N 22°11' E 113°36'2524.5
2014-Sep-17 06:33N 22°28' E 113°55'0 0.4
2014-Sep-17 05:33N 22°29' E 113°55'0 0.1
2014-Sep-17 04:33N 22°29' E 113°55'1716.5
2014-Sep-17 03:33N 22°18' E 114°08'1313.5
2014-Sep-17 02:34N 22°23' E 113°55'6 6.0
2014-Sep-17 01:33N 22°29' E 113°55'0 0.0
2014-Sep-17 00:33N 22°29' E 113°55'0 0.0
2014-Sep-16 23:33N 22°29' E 113°55'0 0.0
2014-Sep-16 22:33N 22°29' E 113°55'0 0.0
2014-Sep-16 21:33N 22°29' E 113°55'0 0.0
2014-Sep-16 20:33N 22°29' E 113°55'0 0.0
2014-Sep-16 19:33N 22°29' E 113°55'0 0.0
2014-Sep-16 18:33N 22°29' E 113°55'0 0.0
2014-Sep-16 17:33N 22°29' E 113°55'0 0.0
2014-Sep-16 16:33N 22°29' E 113°55'0 0.0
2014-Sep-16 15:33N 22°29' E 113°55'0 0.0
2014-Sep-16 14:32N 22°29' E 113°55'0 0.0
2014-Sep-16 13:32N 22°29' E 113°55'0 0.0
2014-Sep-16 12:33N 22°29' E 113°55'0 0.0
2014-Sep-16 11:33N 22°29' E 113°55'0 0.0
2014-Sep-16 10:33N 22°29' E 113°55'0 0.0
2014-Sep-16 09:33N 22°29' E 113°55'0 0.0
2014-Sep-16 08:33N 22°29' E 113°55'0 0.0
2014-Sep-16 07:33N 22°29' E 113°55'0 0.0
2014-Sep-16 06:33N 22°29' E 113°55'0 0.0
2014-Sep-16 05:33N 22°29' E 113°55'0 0.0
2014-Sep-16 04:33N 22°29' E 113°55'0 0.0
2014-Sep-16 03:34N 22°29' E 113°55'0 0.0
2014-Sep-16 02:33N 22°29' E 113°55'0 0.0
2014-Sep-16 01:33N 22°29' E 113°55'0 0.0
2014-Sep-16 00:33N 22°29' E 113°55'0 0.0
2014-Sep-15 23:33N 22°29' E 113°55'0 0.0
2014-Sep-15 22:33N 22°29' E 113°55'0 0.0
2014-Sep-15 21:33N 22°29' E 113°55'0 0.0
2014-Sep-15 20:33N 22°29' E 113°55'0 0.0
2014-Sep-15 19:33N 22°29' E 113°55'0 0.0
2014-Sep-15 18:33N 22°29' E 113°55'0 0.0
2014-Sep-15 17:33N 22°29' E 113°55'0 0.0
2014-Sep-15 16:33N 22°29' E 113°55'0 0.0
2014-Sep-15 15:33N 22°29' E 113°55'0 0.0
2014-Sep-15 14:33N 22°29' E 113°55'7 5.6
2014-Sep-15 13:20N 22°22' E 113°55'7 8.8
2014-Sep-15 12:33N 22°29' E 113°55'2020.0
2014-Sep-15 11:33N 22°15' E 113°39'5 4.7
2014-Sep-15 10:34N 22°11' E 113°37'2423.4
2014-Sep-15 09:31N 22°29' E 113°55'2121.4
2014-Sep-15 08:32N 22°13' E 113°40'0 0.4
2014-Sep-15 07:33N 22°13' E 113°40'2120.7
2014-Sep-15 06:33N 22°29' E 113°54'8 7.8
2014-Sep-15 05:31N 22°21' E 113°57'9 9.1
2014-Sep-15 04:33N 22°19' E 114°06'1414.4
2014-Sep-15 03:34N 22°29' E 113°55'2524.6
2014-Sep-15 02:34N 22°11' E 113°37'5 5.1
2014-Sep-15 01:33N 22°13' E 113°41'2018.4
2014-Sep-15 00:29N 22°29' E 113°55'0 0.0
2014-Sep-14 23:29N 22°29' E 113°55'0 0.0
2014-Sep-14 22:29N 22°29' E 113°55'0 0.0
2014-Sep-14 21:29N 22°29' E 113°55'0 0.0
2014-Sep-14 20:29N 22°29' E 113°55'0 0.0
2014-Sep-14 19:29N 22°29' E 113°55'0 0.1
2014-Sep-14 18:29N 22°29' E 113°54'0 0.1
2014-Sep-14 17:29N 22°29' E 113°55'0 0.1
2014-Sep-14 16:29N 22°29' E 113°54'0 0.1
2014-Sep-14 15:29N 22°29' E 113°55'0 0.0
2014-Sep-14 14:29N 22°29' E 113°55'0 0.0
2014-Sep-14 13:17N 22°29' E 113°55'0 0.0
2014-Sep-14 12:29N 22°29' E 113°55'0 0.1
2014-Sep-14 11:29N 22°29' E 113°54'0 0.1
2014-Sep-14 10:29N 22°29' E 113°55'0 0.0
2014-Sep-14 09:29N 22°29' E 113°55'2 2.3
2014-Sep-14 08:33N 22°27' E 113°54'2523.7
2014-Sep-14 07:31N 22°10' E 113°35'1414.1
2014-Sep-14 06:33N 22°18' E 113°46'1813.0
2014-Sep-14 05:11N 22°19' E 114°06'3 4.2
2014-Sep-14 04:28N 22°21' E 114°03'1111.8
2014-Sep-14 03:33N 22°28' E 113°55'2424.3
2014-Sep-14 02:34N 22°11' E 113°37'10 9.9
2014-Sep-14 01:34N 22°16' E 113°46'15 3.7
2014-Sep-13 21:31N 22°29' E 113°55'0 0.0
2014-Sep-13 20:33N 22°29' E 113°55'0 0.0
2014-Sep-13 19:33N 22°29' E 113°55'0 0.0
2014-Sep-13 18:33N 22°29' E 113°55'0 0.0
2014-Sep-13 17:33N 22°29' E 113°55'0 0.0
2014-Sep-13 16:33N 22°29' E 113°55'0 0.0
2014-Sep-13 15:33N 22°29' E 113°55'0 0.0
2014-Sep-13 14:33N 22°29' E 113°55'7 5.2
2014-Sep-13 13:16N 22°22' E 113°55'7 9.5
2014-Sep-13 12:33N 22°29' E 113°55'1717.1
2014-Sep-13 11:33N 22°15' E 113°44'8 8.4
2014-Sep-13 10:34N 22°11' E 113°36'2524.8
2014-Sep-13 09:33N 22°29' E 113°55'1716.9
2014-Sep-13 08:33N 22°15' E 113°44'7 6.8
2014-Sep-13 07:34N 22°11' E 113°38'  
Track history (hours):
 
Tides and Currents Weather Stations Pressure Air Temp Water Temp Dewpoint Dewpoint Depression Visibility Wind Speed Wind Dir Waves Ship Positions

Xunlong5

Last reported at 2014-Sep-23 07:33 UTC. Time now 2014-Sep-23 08:17 UTC.
Position N 22°14' E 113°43'.

Length 34 m; draft 1.4 m.

Type: High speed craft. MMSI: 413471870.

Date/timePositionNaut miles runAvg speedWind from/ knotsBaromVisibWave heightAir tempDewpointWater temp
2014-Sep-23 07:33N 22°14' E 113°43'8 7.6
2014-Sep-23 06:34N 22°11' E 113°36'2524.9
2014-Sep-23 05:33N 22°29' E 113°55'2019.8
2014-Sep-23 04:34N 22°13' E 113°41'5 4.5
2014-Sep-23 03:33N 22°11' E 113°37'2424.1
2014-Sep-23 02:33N 22°29' E 113°55'9 8.2
2014-Sep-23 01:27N 22°21' E 113°60'7 8.1
2014-Sep-23 00:34N 22°19' E 114°07'1515.3
2014-Sep-22 23:33N 22°29' E 113°55'0 0.0
2014-Sep-22 22:33N 22°29' E 113°55'0 0.0
2014-Sep-22 21:33N 22°29' E 113°55'0 0.0
2014-Sep-22 20:33N 22°29' E 113°55'0 0.0
2014-Sep-22 19:33N 22°29' E 113°55'0 0.0
2014-Sep-22 18:33N 22°29' E 113°55'0 0.0
2014-Sep-22 17:33N 22°29' E 113°55'0 0.0
2014-Sep-22 16:33N 22°29' E 113°55'0 0.0
2014-Sep-22 15:33N 22°29' E 113°55'0 0.0
2014-Sep-22 14:33N 22°29' E 113°55'6 4.7
2014-Sep-22 13:12N 22°22' E 113°55'6 9.8
2014-Sep-22 12:33N 22°29' E 113°55'1615.8
2014-Sep-22 11:34N 22°16' E 113°45'1111.3
2014-Sep-22 10:33N 22°11' E 113°34'2625.8
2014-Sep-22 09:33N 22°29' E 113°55'1716.8
2014-Sep-22 08:33N 22°15' E 113°44'8 8.3
2014-Sep-22 07:33N 22°11' E 113°36'2524.8
2014-Sep-22 06:33N 22°29' E 113°55'9 7.9
2014-Sep-22 05:25N 22°21' E 113°60'6 7.2
2014-Sep-22 04:33N 22°19' E 114°06'1414.2
2014-Sep-22 03:33N 22°28' E 113°55'2423.8
2014-Sep-22 02:33N 22°11' E 113°37'6 5.7
2014-Sep-22 01:33N 22°14' E 113°43'1818.4
2014-Sep-22 00:34N 22°29' E 113°55'0 0.1
2014-Sep-21 23:33N 22°29' E 113°55'0 0.0
2014-Sep-21 22:33N 22°29' E 113°55'0 0.0
2014-Sep-21 21:33N 22°29' E 113°55'0 0.0
2014-Sep-21 20:33N 22°29' E 113°55'0 0.0
2014-Sep-21 19:33N 22°29' E 113°55'0 0.0
2014-Sep-21 18:33N 22°29' E 113°55'0 0.0
2014-Sep-21 17:33N 22°29' E 113°55'0 0.0
2014-Sep-21 16:33N 22°29' E 113°55'0 0.0
2014-Sep-21 15:33N 22°29' E 113°55'0 0.0
2014-Sep-21 14:33N 22°29' E 113°55'10 8.9
2014-Sep-21 13:27N 22°19' E 113°57'1011.0
2014-Sep-21 12:33N 22°29' E 113°55'1716.8
2014-Sep-21 11:34N 22°15' E 113°44'7 7.4
2014-Sep-21 10:33N 22°11' E 113°37'2423.9
2014-Sep-21 09:33N 22°29' E 113°55'1919.5
2014-Sep-21 08:34N 22°13' E 113°42'7 6.9
2014-Sep-21 07:33N 22°11' E 113°35'2625.7
2014-Sep-21 06:34N 22°29' E 113°55'0 0.1
2014-Sep-21 05:33N 22°29' E 113°55'0 0.1
2014-Sep-21 04:33N 22°29' E 113°55'1817.1
2014-Sep-21 03:31N 22°17' E 114°09'1414.0
2014-Sep-21 02:33N 22°22' E 113°55'7 7.0
2014-Sep-21 01:34N 22°29' E 113°55'0 0.0
2014-Sep-21 00:34N 22°29' E 113°55'0 0.1
2014-Sep-20 23:34N 22°29' E 113°55'0 0.0
2014-Sep-20 22:33N 22°29' E 113°55'0 0.0
2014-Sep-20 21:34N 22°29' E 113°55'0 0.0
2014-Sep-20 20:33N 22°29' E 113°55'0 0.0
2014-Sep-20 19:34N 22°29' E 113°55'0 0.0
2014-Sep-20 18:34N 22°29' E 113°55'0 0.0
2014-Sep-20 17:34N 22°29' E 113°55'0 0.0
2014-Sep-20 16:34N 22°29' E 113°55'0 0.0
2014-Sep-20 15:34N 22°29' E 113°55'0 0.0
2014-Sep-20 14:33N 22°29' E 113°55'7 5.5
2014-Sep-20 13:14N 22°22' E 113°55'710.7
2014-Sep-20 12:33N 22°29' E 113°55'1918.8
2014-Sep-20 11:33N 22°14' E 113°42'3 3.1
2014-Sep-20 10:34N 22°12' E 113°40'2221.8
2014-Sep-20 09:33N 22°29' E 113°55'1919.3
2014-Sep-20 08:33N 22°14' E 113°42'6 6.2
2014-Sep-20 07:34N 22°11' E 113°36'2525.1
2014-Sep-20 06:33N 22°29' E 113°55'0 0.1
2014-Sep-20 05:33N 22°29' E 113°55'0 0.4
2014-Sep-20 04:33N 22°28' E 113°55'1716.8
2014-Sep-20 03:34N 22°18' E 114°09'1414.0
2014-Sep-20 02:33N 22°22' E 113°55'6 6.3
2014-Sep-20 01:33N 22°29' E 113°55'0 0.0
2014-Sep-20 00:33N 22°29' E 113°55'0 0.1
2014-Sep-19 23:33N 22°29' E 113°55'0 0.0
2014-Sep-19 22:33N 22°29' E 113°55'0 0.0
2014-Sep-19 21:33N 22°29' E 113°55'0 0.0
2014-Sep-19 20:33N 22°29' E 113°55'0 0.0
2014-Sep-19 19:33N 22°29' E 113°55'0 0.0
2014-Sep-19 18:33N 22°29' E 113°55'0 0.0
2014-Sep-19 17:33N 22°29' E 113°55'0 0.0
2014-Sep-19 16:33N 22°29' E 113°55'0 0.0
2014-Sep-19 15:33N 22°29' E 113°55'0 0.0
2014-Sep-19 14:33N 22°29' E 113°55'6 5.0
2014-Sep-19 13:16N 22°22' E 113°55'6 9.1
2014-Sep-19 12:33N 22°29' E 113°55'1918.8
2014-Sep-19 11:34N 22°14' E 113°42'2 2.2
2014-Sep-19 10:33N 22°13' E 113°40'2120.8
2014-Sep-19 09:33N 22°29' E 113°55'2319.5
2014-Sep-19 08:22N 22°11' E 113°38'3 4.2
2014-Sep-19 07:34N 22°11' E 113°34'2625.8
2014-Sep-19 06:34N 22°29' E 113°55'0 0.1
2014-Sep-19 05:33N 22°29' E 113°55'0 0.3
2014-Sep-19 04:33N 22°29' E 113°55'1716.1
2014-Sep-19 03:29N 22°17' E 114°09'1617.7
2014-Sep-19 02:33N 22°26' E 113°54'3 2.9
2014-Sep-19 01:33N 22°29' E 113°55'0 0.0
2014-Sep-19 00:33N 22°29' E 113°55'0 0.0
2014-Sep-18 23:33N 22°29' E 113°55'0 0.0
2014-Sep-18 22:33N 22°29' E 113°55'0 0.0
2014-Sep-18 21:33N 22°29' E 113°55'0 0.0
2014-Sep-18 20:33N 22°29' E 113°55'0 0.0
2014-Sep-18 19:33N 22°29' E 113°55'0 0.0
2014-Sep-18 18:33N 22°29' E 113°55'0 0.0
2014-Sep-18 17:33N 22°29' E 113°55'0 0.0
2014-Sep-18 16:33N 22°29' E 113°55'0 0.0
2014-Sep-18 15:33N 22°29' E 113°55'0 0.0
2014-Sep-18 14:33N 22°29' E 113°55'1111.2
2014-Sep-18 13:33N 22°19' E 113°48'1514.7
2014-Sep-18 12:33N 22°11' E 113°35'2625.6
2014-Sep-18 11:33N 22°29' E 113°55'1616.1
2014-Sep-18 10:33N 22°15' E 113°45'1010.3
2014-Sep-18 09:33N 22°11' E 113°35'2625.7
2014-Sep-18 08:33N 22°29' E 113°55'1818.1
2014-Sep-18 07:34N 22°14' E 113°43'7 7.2
2014-Sep-18 06:33N 22°11' E 113°36'2524.9
2014-Sep-18 05:33N 22°29' E 113°55'1616.3
2014-Sep-18 04:33N 22°15' E 113°45'9 8.7
2014-Sep-18 03:33N 22°11' E 113°37'2424.6
2014-Sep-18 02:33N 22°29' E 113°55'1410.7
2014-Sep-18 01:15N 22°19' E 114°06'2 2.8
2014-Sep-18 00:34N 22°19' E 114°08'1615.7
2014-Sep-17 23:33N 22°29' E 113°55'0 0.0
2014-Sep-17 22:33N 22°29' E 113°55'0 0.0
2014-Sep-17 21:33N 22°29' E 113°55'0 0.0
2014-Sep-17 20:33N 22°29' E 113°55'0 0.0
2014-Sep-17 19:33N 22°29' E 113°55'0 0.0
2014-Sep-17 18:33N 22°29' E 113°55'0 0.0
2014-Sep-17 17:33N 22°29' E 113°55'0 0.0
2014-Sep-17 16:33N 22°29' E 113°55'0 0.0
2014-Sep-17 15:33N 22°29' E 113°55'0 0.0
2014-Sep-17 14:34N 22°29' E 113°55'7 5.8
2014-Sep-17 13:21N 22°22' E 113°55'7 9.0
2014-Sep-17 12:33N 22°29' E 113°55'2121.2
2014-Sep-17 11:33N 22°12' E 113°40'4 3.8
2014-Sep-17 10:34N 22°11' E 113°36'2524.8
2014-Sep-17 09:34N 22°29' E 113°55'1817.8
2014-Sep-17 08:34N 22°14' E 113°43'7 7.4
2014-Sep-17 07:33N 22°11' E 113°36'2524.5
2014-Sep-17 06:33N 22°28' E 113°55'0 0.4
2014-Sep-17 05:33N 22°29' E 113°55'0 0.1
2014-Sep-17 04:33N 22°29' E 113°55'1716.5
2014-Sep-17 03:33N 22°18' E 114°08'1313.5
2014-Sep-17 02:34N 22°23' E 113°55'6 6.0
2014-Sep-17 01:33N 22°29' E 113°55'0 0.0
2014-Sep-17 00:33N 22°29' E 113°55'0 0.0
2014-Sep-16 23:33N 22°29' E 113°55'0 0.0
2014-Sep-16 22:33N 22°29' E 113°55'0 0.0
2014-Sep-16 21:33N 22°29' E 113°55'0 0.0
2014-Sep-16 20:33N 22°29' E 113°55'0 0.0
2014-Sep-16 19:33N 22°29' E 113°55'0 0.0
2014-Sep-16 18:33N 22°29' E 113°55'0 0.0
2014-Sep-16 17:33N 22°29' E 113°55'0 0.0
2014-Sep-16 16:33N 22°29' E 113°55'0 0.0
2014-Sep-16 15:33N 22°29' E 113°55'0 0.0
2014-Sep-16 14:32N 22°29' E 113°55'0 0.0
2014-Sep-16 13:32N 22°29' E 113°55'0 0.0
2014-Sep-16 12:33N 22°29' E 113°55'0 0.0
2014-Sep-16 11:33N 22°29' E 113°55'0 0.0
2014-Sep-16 10:33N 22°29' E 113°55'0 0.0
2014-Sep-16 09:33N 22°29' E 113°55'0 0.0
2014-Sep-16 08:33N 22°29' E 113°55'0 0.0
2014-Sep-16 07:33N 22°29' E 113°55'0 0.0
2014-Sep-16 06:33N 22°29' E 113°55'0 0.0
2014-Sep-16 05:33N 22°29' E 113°55'0 0.0
2014-Sep-16 04:33N 22°29' E 113°55'0 0.0
2014-Sep-16 03:34N 22°29' E 113°55'0 0.0
2014-Sep-16 02:33N 22°29' E 113°55'0 0.0
2014-Sep-16 01:33N 22°29' E 113°55'0 0.0
2014-Sep-16 00:33N 22°29' E 113°55'0 0.0
2014-Sep-15 23:33N 22°29' E 113°55'0 0.0
2014-Sep-15 22:33N 22°29' E 113°55'0 0.0
2014-Sep-15 21:33N 22°29' E 113°55'0 0.0
2014-Sep-15 20:33N 22°29' E 113°55'0 0.0
2014-Sep-15 19:33N 22°29' E 113°55'0 0.0
2014-Sep-15 18:33N 22°29' E 113°55'0 0.0
2014-Sep-15 17:33N 22°29' E 113°55'0 0.0
2014-Sep-15 16:33N 22°29' E 113°55'0 0.0
2014-Sep-15 15:33N 22°29' E 113°55'0 0.0
2014-Sep-15 14:33N 22°29' E 113°55'7 5.6
2014-Sep-15 13:20N 22°22' E 113°55'7 8.8
2014-Sep-15 12:33N 22°29' E 113°55'2020.0
2014-Sep-15 11:33N 22°15' E 113°39'5 4.7
2014-Sep-15 10:34N 22°11' E 113°37'2423.4
2014-Sep-15 09:31N 22°29' E 113°55'2121.4
2014-Sep-15 08:32N 22°13' E 113°40'0 0.4
2014-Sep-15 07:33N 22°13' E 113°40'2120.7
2014-Sep-15 06:33N 22°29' E 113°54'8 7.8
2014-Sep-15 05:31N 22°21' E 113°57'9 9.1
2014-Sep-15 04:33N 22°19' E 114°06'1414.4
2014-Sep-15 03:34N 22°29' E 113°55'2524.6
2014-Sep-15 02:34N 22°11' E 113°37'5 5.1
2014-Sep-15 01:33N 22°13' E 113°41'2018.4
2014-Sep-15 00:29N 22°29' E 113°55'0 0.0
2014-Sep-14 23:29N 22°29' E 113°55'0 0.0
2014-Sep-14 22:29N 22°29' E 113°55'0 0.0
2014-Sep-14 21:29N 22°29' E 113°55'0 0.0
2014-Sep-14 20:29N 22°29' E 113°55'0 0.0
2014-Sep-14 19:29N 22°29' E 113°55'0 0.1
2014-Sep-14 18:29N 22°29' E 113°54'0 0.1
2014-Sep-14 17:29N 22°29' E 113°55'0 0.1
2014-Sep-14 16:29N 22°29' E 113°54'0 0.1
2014-Sep-14 15:29N 22°29' E 113°55'0 0.0
2014-Sep-14 14:29N 22°29' E 113°55'0 0.0
2014-Sep-14 13:17N 22°29' E 113°55'0 0.0
2014-Sep-14 12:29N 22°29' E 113°55'0 0.1
2014-Sep-14 11:29N 22°29' E 113°54'0 0.1
2014-Sep-14 10:29N 22°29' E 113°55'0 0.0
2014-Sep-14 09:29N 22°29' E 113°55'2 2.3
2014-Sep-14 08:33N 22°27' E 113°54'2523.7
2014-Sep-14 07:31N 22°10' E 113°35'1414.1
2014-Sep-14 06:33N 22°18' E 113°46'1813.0
2014-Sep-14 05:11N 22°19' E 114°06'3 4.2
2014-Sep-14 04:28N 22°21' E 114°03'1111.8
2014-Sep-14 03:33N 22°28' E 113°55'2424.3
2014-Sep-14 02:34N 22°11' E 113°37'10 9.9
2014-Sep-14 01:34N 22°16' E 113°46'15 3.7
2014-Sep-13 21:31N 22°29' E 113°55'0 0.0
2014-Sep-13 20:33N 22°29' E 113°55'0 0.0
2014-Sep-13 19:33N 22°29' E 113°55'0 0.0
2014-Sep-13 18:33N 22°29' E 113°55'0 0.0
2014-Sep-13 17:33N 22°29' E 113°55'0 0.0
2014-Sep-13 16:33N 22°29' E 113°55'0 0.0
2014-Sep-13 15:33N 22°29' E 113°55'0 0.0
2014-Sep-13 14:33N 22°29' E 113°55'7 5.2
2014-Sep-13 13:16N 22°22' E 113°55'7 9.5
2014-Sep-13 12:33N 22°29' E 113°55'1717.1
2014-Sep-13 11:33N 22°15' E 113°44'8 8.4
2014-Sep-13 10:34N 22°11' E 113°36'2524.8
2014-Sep-13 09:33N 22°29' E 113°55'1716.9
2014-Sep-13 08:33N 22°15' E 113°44'7 6.8
2014-Sep-13 07:34N 22°11' E 113°38'  

Dump ship's entire track history